La Villa, Texas
Current Conditions -  °F | °C
As of 3:55 PM on Wednesday 28 Jan 2015 (Local Time) from KT65 Reporting Station
Clear Clear  
Wind Chill: 75°   Ceiling: Unl
Heat Index: 75°   Visibility: 10mi
Dew Point: 53°   Wind: 15mph
Humidity: 46%   Direction: 160°SSE
Pressure: 30.11"   Gusts: 20mph
Location:  26.3°N, 97.93°W
Report Text: KT65 282155Z AUTO 16013G17KT 10SM CLR 24/12 A3011 RMK AO2 T02380115
Loading
Personal Weather Stations






























Interactive Weather Map New forecast layout! Learn more

10-Day Weather Forecast

Advertisements
Track Severe Weather on mobile